Miami, Florida
Current Conditions -  °F | °C
As of 1:53 AM on Saturday 01 Nov 2014 (Local Time) from KMIA Reporting Station
Clear Clear  
Wind Chill: 19°   Ceiling: Unl
Heat Index: 19°   Visibility: 10mi
Dew Point: 12°   Wind: 9mph
Humidity: 63%   Direction: 310°NW
Pressure: 29.92"   Gusts: NA
Location:  25.77°N, 80.19°W
Report Text: KMIA 010553Z 31008KT 10SM CLR 19/12 A2992 RMK AO2 SLP130 T01940122 10256 20194 50004
Loading
Personal Weather Stations






























Interactive Weather Map New forecast layout! Learn more

10-Day Weather Forecast

Advertisements
Track Severe Weather on mobile